createdAt,value
2022-08-05T00:00:55.654Z,99653.28
2022-08-05T00:03:29.176Z,99656.38
2022-08-05T00:06:04.698Z,99664.97
2022-08-05T00:08:47.458Z,99654.06
2022-08-05T00:11:20.622Z,99656.59
2022-08-05T00:13:55.661Z,99651.78
2022-08-05T00:16:35.953Z,99635.88
2022-08-05T00:19:07.828Z,99625.66
2022-08-05T00:21:35.662Z,99636.94
2022-08-05T00:24:10.177Z,99637.56
2022-08-05T00:26:38.917Z,99635.25
2022-08-05T00:29:14.409Z,99601.41
2022-08-05T00:32:10.216Z,99598.28
2022-08-05T00:34:56.409Z,99606.19
2022-08-05T00:37:17.399Z,99605.56
2022-08-05T00:39:57.973Z,99595.13
2022-08-05T00:42:31.758Z,99592.41
2022-08-05T00:45:00.006Z,99591.59
2022-08-05T00:47:27.810Z,99584.47
2022-08-05T00:50:15.368Z,99575.91
2022-08-05T00:52:45.476Z,99581.75
2022-08-05T00:55:15.048Z,99575.22
2022-08-05T00:57:57.879Z,99563.94
2022-08-05T01:00:26.660Z,99561.84
2022-08-05T01:02:55.319Z,99560.59
2022-08-05T01:05:23.609Z,99563.72
2022-08-05T01:08:42.276Z,99566.84
2022-08-05T01:10:40.569Z,99568.91
2022-08-05T01:13:22.443Z,99574.13
2022-08-05T01:15:55.287Z,99577.66
2022-08-05T01:18:27.472Z,99581.00
2022-08-05T01:20:55.197Z,99583.88
2022-08-05T01:23:24.732Z,99577.38
2022-08-05T01:26:02.597Z,99587.16
2022-08-05T01:28:30.335Z,99591.53
2022-08-05T01:30:58.056Z,99584.63
2022-08-05T01:33:26.218Z,99583.38
2022-08-05T01:35:54.028Z,99587.50
2022-08-05T01:38:29.033Z,99591.66
2022-08-05T01:40:57.441Z,99592.03
2022-08-05T01:43:25.173Z,99594.09
2022-08-05T01:45:56.514Z,99597.00
2022-08-05T01:48:25.208Z,99603.28
2022-08-05T01:50:52.928Z,99601.59
2022-08-05T01:53:55.139Z,99598.25
2022-08-05T01:56:09.354Z,99592.19
2022-08-05T01:58:40.673Z,99591.56
2022-08-05T02:01:12.479Z,99597.38
2022-08-05T02:03:40.314Z,99595.06
2022-08-05T02:06:33.576Z,99598.38
2022-08-05T02:08:58.907Z,99593.75
2022-08-05T02:11:33.810Z,99593.31
2022-08-05T02:14:01.808Z,99585.59
2022-08-05T02:16:29.474Z,99583.91
2022-08-05T02:18:57.656Z,99584.97
2022-08-05T02:21:25.384Z,99595.13
2022-08-05T02:23:53.280Z,99607.19
2022-08-05T02:26:20.979Z,99611.78
2022-08-05T02:28:49.897Z,99619.72
2022-08-05T02:31:21.237Z,99623.88
2022-08-05T02:33:49.480Z,99632.69
2022-08-05T02:36:27.517Z,99623.09
2022-08-05T02:38:55.983Z,99623.16
2022-08-05T02:41:29.010Z,99626.09
2022-08-05T02:44:06.943Z,99641.13
2022-08-05T02:46:44.045Z,99661.16
2022-08-05T02:49:26.520Z,99677.81
2022-08-05T02:52:03.620Z,99683.78
2022-08-05T02:54:36.414Z,99688.56
2022-08-05T02:57:10.159Z,99684.38
2022-08-05T02:59:54.231Z,99677.94
2022-08-05T03:02:21.950Z,99667.94
2022-08-05T03:04:53.355Z,99668.78
2022-08-05T03:07:40.677Z,99665.25
2022-08-05T03:10:08.706Z,99673.66
2022-08-05T03:12:36.838Z,99684.50
2022-08-05T03:15:04.529Z,99696.38
2022-08-05T03:17:34.630Z,99688.25
2022-08-05T03:20:10.095Z,99704.91
2022-08-05T03:22:38.096Z,99709.44
2022-08-05T03:25:33.533Z,99713.28
2022-08-05T03:28:00.609Z,99704.25
2022-08-05T03:30:28.710Z,99706.75
2022-08-05T03:33:02.484Z,99704.63
2022-08-05T03:35:33.837Z,99717.72
2022-08-05T03:38:01.757Z,99739.16
2022-08-05T03:40:31.928Z,99760.38
2022-08-05T03:43:01.478Z,99764.63
2022-08-05T03:45:58.170Z,99763.41
2022-08-05T03:48:26.979Z,99759.13
2022-08-05T03:50:59.152Z,99760.06
2022-08-05T03:55:53.544Z,99732.47
2022-08-05T03:56:35.187Z,99678.22
2022-08-05T03:59:03.594Z,99654.31
2022-08-05T04:01:33.535Z,99621.22
2022-08-05T04:04:09.072Z,99595.47
2022-08-05T04:06:38.104Z,99569.28
2022-08-05T04:09:07.198Z,99558.44
2022-08-05T04:11:47.304Z,99555.94
2022-08-05T04:14:18.304Z,99562.75
2022-08-05T04:16:45.939Z,99554.38
2022-08-05T04:19:14.108Z,99568.50
2022-08-05T04:22:09.848Z,99593.34
2022-08-05T04:24:29.434Z,99610.06
2022-08-05T04:26:58.121Z,99585.44
2022-08-05T04:29:27.282Z,99644.47
2022-08-05T04:31:56.760Z,99643.91
2022-08-05T04:34:33.836Z,99625.19
2022-08-05T04:37:03.175Z,99645.59
2022-08-05T04:39:31.314Z,99668.41
2022-08-05T04:41:59.871Z,99656.31
2022-08-05T04:44:29.598Z,99650.53
2022-08-05T04:46:58.442Z,99649.31
2022-08-05T04:49:38.465Z,99669.72
2022-08-05T04:52:16.489Z,99655.19
2022-08-05T04:54:44.143Z,99648.56
2022-08-05T04:57:12.253Z,99645.31
2022-08-05T04:59:40.814Z,99637.03
2022-08-05T05:02:41.270Z,99638.47
2022-08-05T05:05:02.706Z,99638.94
2022-08-05T05:07:32.787Z,99650.44
2022-08-05T05:10:06.612Z,99651.94
2022-08-05T05:12:34.369Z,99641.34
2022-08-05T05:15:04.599Z,99641.69
2022-08-05T05:17:56.334Z,99651.75
2022-08-05T05:20:20.357Z,99641.16
2022-08-05T05:22:48.205Z,99646.66
2022-08-05T05:25:17.344Z,99668.09
2022-08-05T05:27:53.526Z,99657.75
2022-08-05T05:30:29.702Z,99659.50
2022-08-05T05:33:00.172Z,99649.31
2022-08-05T05:35:29.121Z,99629.81
2022-08-05T05:38:03.441Z,99641.94
2022-08-05T05:40:33.386Z,99666.06
2022-08-05T05:43:02.332Z,99668.13
2022-08-05T05:45:29.936Z,99674.19
2022-08-05T05:48:06.677Z,99676.53
2022-08-05T05:50:44.256Z,99675.69
2022-08-05T05:53:22.007Z,99681.47
2022-08-05T05:55:52.077Z,99687.09
2022-08-05T05:58:31.893Z,99683.72
2022-08-05T06:01:12.397Z,99688.13
2022-08-05T06:04:00.352Z,99673.19
2022-08-05T06:06:31.386Z,99657.88
2022-08-05T06:09:03.926Z,99633.38
2022-08-05T06:11:31.731Z,99649.28
2022-08-05T06:14:00.315Z,99658.50
2022-08-05T06:16:32.711Z,99676.44
2022-08-05T06:19:05.830Z,99657.47
2022-08-05T06:21:37.237Z,99659.78
2022-08-05T06:24:06.010Z,99657.72
2022-08-05T06:26:36.047Z,99655.75
2022-08-05T06:29:23.622Z,99656.84
2022-08-05T06:31:51.464Z,99666.63
2022-08-05T06:34:19.964Z,99661.22
2022-08-05T06:36:57.967Z,99655.34
2022-08-05T06:39:26.824Z,99658.28
2022-08-05T06:41:56.542Z,99659.75
2022-08-05T06:44:26.450Z,99661.22
2022-08-05T06:46:54.363Z,99667.94
2022-08-05T06:50:01.336Z,99670.22
2022-08-05T06:52:37.780Z,99675.28
2022-08-05T06:54:58.476Z,99681.97
2022-08-05T06:58:03.916Z,99693.66
2022-08-05T07:00:14.183Z,99700.03
2022-08-05T07:02:53.983Z,99703.09
2022-08-05T07:05:31.885Z,99705.72
2022-08-05T07:08:05.234Z,99709.44
2022-08-05T07:10:32.985Z,99704.03
2022-08-05T07:13:52.462Z,99699.25
2022-08-05T07:17:59.948Z,99713.84
2022-08-05T07:19:11.221Z,99725.78
2022-08-05T07:22:00.547Z,99728.44
2022-08-05T07:24:29.998Z,99737.13
2022-08-05T07:26:58.080Z,99745.16
2022-08-05T07:30:27.725Z,99738.66
2022-08-05T07:32:14.663Z,99735.75
2022-08-05T07:34:42.609Z,99739.06
2022-08-05T07:37:11.690Z,99744.81
2022-08-05T07:40:04.556Z,99740.44
2022-08-05T07:42:31.857Z,99741.19
2022-08-05T07:45:01.902Z,99744.13
2022-08-05T07:47:31.156Z,99750.06
2022-08-05T07:50:09.835Z,99745.03
2022-08-05T07:52:37.588Z,99756.03
2022-08-05T07:55:15.842Z,99763.34
2022-08-05T07:58:02.166Z,99762.31
2022-08-05T08:00:30.931Z,99763.34
2022-08-05T08:03:13.600Z,99779.47
2022-08-05T08:05:49.279Z,99781.91
2022-08-05T08:08:20.006Z,99790.38
2022-08-05T08:10:48.724Z,99788.25
2022-08-05T08:13:22.100Z,99792.53
2022-08-05T08:16:35.878Z,99794.78
2022-08-05T08:18:50.228Z,99802.25
2022-08-05T08:21:18.438Z,99805.47
2022-08-05T08:24:03.164Z,99803.59
2022-08-05T08:26:32.795Z,99809.56
2022-08-05T08:29:02.285Z,99809.94
2022-08-05T08:31:48.318Z,99812.50
2022-08-05T08:34:16.212Z,99820.81
2022-08-05T08:36:52.510Z,99833.00
2022-08-05T08:39:23.665Z,99831.50
2022-08-05T08:42:00.093Z,99833.19
2022-08-05T08:45:19.918Z,99840.09
2022-08-05T08:47:21.975Z,99854.16
2022-08-05T08:50:30.348Z,99860.97
2022-08-05T08:52:53.756Z,99868.94
2022-08-05T08:56:01.952Z,99868.47
2022-08-05T08:58:09.922Z,99872.91
2022-08-05T09:00:41.198Z,99872.97
2022-08-05T09:03:09.428Z,99875.19
2022-08-05T09:05:38.282Z,99879.13
2022-08-05T09:08:27.386Z,99881.16
2022-08-05T09:10:57.839Z,99894.84
2022-08-05T09:13:25.559Z,99894.38
2022-08-05T09:15:59.944Z,99900.75
2022-08-05T09:18:27.915Z,99899.28
2022-08-05T09:20:57.559Z,99912.09
2022-08-05T09:23:27.185Z,99912.00
2022-08-05T09:26:02.418Z,99918.09
2022-08-05T09:28:33.634Z,99920.97
2022-08-05T09:31:22.408Z,99923.34
2022-08-05T09:33:52.464Z,99927.88
2022-08-05T09:36:21.405Z,99939.69
2022-08-05T09:38:56.022Z,99931.28
2022-08-05T09:41:24.848Z,99934.63
2022-08-05T09:43:53.563Z,99940.34
2022-08-05T09:46:22.795Z,99933.28
2022-08-05T09:49:07.990Z,99942.06
2022-08-05T09:51:44.040Z,99937.84
2022-08-05T09:54:16.771Z,99947.09
2022-08-05T09:56:57.529Z,99950.16
2022-08-05T09:59:27.619Z,99946.06
2022-08-05T10:01:58.172Z,99943.03
2022-08-05T10:04:29.341Z,99947.69
2022-08-05T10:06:59.590Z,99946.66
2022-08-05T10:09:30.148Z,99955.91
2022-08-05T10:12:30.352Z,99959.09
2022-08-05T10:15:01.435Z,99962.56
2022-08-05T10:17:37.680Z,99967.44
2022-08-05T10:20:09.963Z,99968.59
2022-08-05T10:22:42.795Z,99966.72
2022-08-05T10:25:16.435Z,99974.34
2022-08-05T10:28:16.819Z,99979.75
2022-08-05T10:31:20.122Z,99981.78
2022-08-05T10:33:20.024Z,99990.44
2022-08-05T10:35:59.264Z,99985.75
2022-08-05T10:38:27.920Z,99984.44
2022-08-05T10:40:58.197Z,99992.53
2022-08-05T10:43:31.058Z,99997.25
2022-08-05T10:46:06.726Z,100008.25
2022-08-05T10:48:40.663Z,100018.03
2022-08-05T10:51:23.170Z,100008.06
2022-08-05T10:53:58.586Z,100006.69
2022-08-05T10:56:29.291Z,100013.25
2022-08-05T10:58:58.052Z,100016.06
2022-08-05T11:02:02.848Z,100037.69
2022-08-05T11:04:22.724Z,100033.59
2022-08-05T11:06:54.047Z,100027.16
2022-08-05T11:09:31.950Z,100035.09
2022-08-05T11:12:06.866Z,100036.13
2022-08-05T11:15:01.569Z,100051.97
2022-08-05T11:17:59.992Z,100061.25
2022-08-05T11:20:17.295Z,100056.53
2022-08-05T11:22:49.878Z,100061.94
2022-08-05T11:26:05.098Z,100071.19
2022-08-05T11:28:09.274Z,100076.06
2022-08-05T11:30:44.853Z,100080.47
2022-08-05T11:33:21.462Z,100084.84
2022-08-05T11:36:07.433Z,100085.50
2022-08-05T11:38:45.218Z,100096.31
2022-08-05T11:41:54.811Z,100099.69
2022-08-05T11:44:07.109Z,100086.16
2022-08-05T11:46:35.912Z,100087.91
2022-08-05T11:49:03.981Z,100089.19
2022-08-05T11:51:44.725Z,100098.38
2022-08-05T11:54:18.084Z,100098.78
2022-08-05T11:56:50.045Z,100098.38
2022-08-05T11:59:21.305Z,100103.69
2022-08-05T12:01:49.205Z,100094.59
2022-08-05T12:04:20.148Z,100104.44
2022-08-05T12:06:50.056Z,100090.44
2022-08-05T12:09:20.241Z,100087.44
2022-08-05T12:11:47.990Z,100090.06
2022-08-05T12:14:18.461Z,100085.97
2022-08-05T12:16:47.462Z,100079.97
2022-08-05T12:20:16.861Z,100071.78
2022-08-05T12:22:03.169Z,100074.66
2022-08-05T12:24:30.887Z,100071.72
2022-08-05T12:26:59.091Z,100077.75
2022-08-05T12:29:38.052Z,100077.03
2022-08-05T12:32:07.526Z,100076.97
2022-08-05T12:34:37.304Z,100072.91
2022-08-05T12:37:17.222Z,100083.41
2022-08-05T12:39:51.178Z,100077.13
2022-08-05T12:42:19.370Z,100086.72
2022-08-05T12:44:47.814Z,100090.94
2022-08-05T12:47:17.172Z,100092.19
2022-08-05T12:50:04.463Z,100100.22
2022-08-05T12:52:39.702Z,100105.66
2022-08-05T12:55:10.477Z,100102.72
2022-08-05T12:58:49.098Z,100111.66
2022-08-05T13:02:03.019Z,100120.53
2022-08-05T13:03:14.830Z,100120.47
2022-08-05T13:05:42.992Z,100125.72
2022-08-05T13:08:10.731Z,100119.28
2022-08-05T13:10:50.229Z,100130.19
2022-08-05T13:14:07.347Z,100126.03
2022-08-05T13:16:06.167Z,100126.09
2022-08-05T13:18:38.660Z,100129.16
2022-08-05T13:21:06.346Z,100129.19
2022-08-05T13:23:34.029Z,100139.03
2022-08-05T13:26:03.693Z,100133.31
2022-08-05T13:28:32.341Z,100134.69
2022-08-05T13:31:10.922Z,100132.06
2022-08-05T13:34:20.233Z,100126.25
2022-08-05T13:36:31.790Z,100128.63
2022-08-05T13:38:59.484Z,100131.22
2022-08-05T13:41:35.943Z,100142.75
2022-08-05T13:44:05.359Z,100146.69
2022-08-05T13:46:50.641Z,100153.47
2022-08-05T13:49:21.544Z,100163.06
2022-08-05T13:51:49.274Z,100164.88
2022-08-05T13:54:21.233Z,100169.03
2022-08-05T13:56:53.176Z,100172.38
2022-08-05T13:59:23.990Z,100170.16
2022-08-05T14:01:57.892Z,100174.34
2022-08-05T14:04:49.935Z,100173.97
2022-08-05T14:07:55.363Z,100166.97
2022-08-05T14:10:08.384Z,100157.97
2022-08-05T14:12:36.377Z,100151.66
2022-08-05T14:16:05.474Z,100151.63
2022-08-05T14:17:54.967Z,100160.81
2022-08-05T14:20:27.215Z,100165.69
2022-08-05T14:22:55.252Z,100159.09
2022-08-05T14:25:28.132Z,100163.56
2022-08-05T14:27:56.253Z,100164.72
2022-08-05T14:30:28.087Z,100167.53
2022-08-05T14:32:56.931Z,100168.25
2022-08-05T14:35:36.151Z,100179.13
2022-08-05T14:38:33.333Z,100175.28
2022-08-05T14:41:00.562Z,100184.91
2022-08-05T14:43:59.451Z,100180.34
2022-08-05T14:46:16.016Z,100192.56
2022-08-05T14:48:43.958Z,100189.19
2022-08-05T14:51:17.689Z,100191.97
2022-08-05T14:53:45.554Z,100200.00
2022-08-05T14:56:34.084Z,100188.91
2022-08-05T14:59:05.732Z,100192.91
2022-08-05T15:01:48.486Z,100207.53
2022-08-05T15:04:17.264Z,100215.66
2022-08-05T15:06:48.983Z,100206.94
2022-08-05T15:09:51.054Z,100218.97
2022-08-05T15:12:05.021Z,100216.56
2022-08-05T15:14:36.896Z,100214.22
2022-08-05T15:17:47.674Z,100221.97
2022-08-05T15:20:04.477Z,100217.41
2022-08-05T15:22:32.141Z,100217.88
2022-08-05T15:25:00.425Z,100223.56
2022-08-05T15:27:39.802Z,100219.16
2022-08-05T15:30:10.989Z,100222.53
2022-08-05T15:32:42.428Z,100219.81
2022-08-05T15:35:12.619Z,100219.16
2022-08-05T15:38:32.797Z,100217.28
2022-08-05T15:41:00.573Z,100226.28
2022-08-05T15:43:20.066Z,100224.56
2022-08-05T15:46:00.718Z,100218.50
2022-08-05T15:48:29.140Z,100221.22
2022-08-05T15:50:56.876Z,100225.03
2022-08-05T15:53:26.390Z,100220.06
2022-08-05T15:56:01.380Z,100218.19
2022-08-05T15:58:36.880Z,100212.19
2022-08-05T16:01:17.111Z,100211.13
2022-08-05T16:03:48.548Z,100208.47
2022-08-05T16:06:20.238Z,100205.41
2022-08-05T16:08:50.317Z,100209.41
2022-08-05T16:11:39.988Z,100214.25
2022-08-05T16:14:09.292Z,100203.91
2022-08-05T16:16:37.303Z,100203.88
2022-08-05T16:19:04.949Z,100196.53
2022-08-05T16:22:00.834Z,100195.50
2022-08-05T16:24:39.536Z,100200.06
2022-08-05T16:27:07.985Z,100198.88
2022-08-05T16:29:37.312Z,100210.56
2022-08-05T16:32:05.557Z,100206.34
2022-08-05T16:34:33.310Z,100215.44
2022-08-05T16:37:01.070Z,100218.97
2022-08-05T16:40:05.014Z,100210.16
2022-08-05T16:42:27.701Z,100216.69
2022-08-05T16:44:57.087Z,100218.78
2022-08-05T16:47:35.866Z,100223.13
2022-08-05T16:50:04.486Z,100235.59
2022-08-05T16:52:33.341Z,100244.78
2022-08-05T16:55:01.434Z,100238.63
2022-08-05T16:57:48.609Z,100242.72
2022-08-05T17:00:33.984Z,100250.38
2022-08-05T17:03:02.815Z,100259.63
2022-08-05T17:05:31.576Z,100266.78
2022-08-05T17:07:59.730Z,100259.69
2022-08-05T17:10:30.513Z,100264.91
2022-08-05T17:12:58.490Z,100272.84
2022-08-05T17:15:29.505Z,100275.63
2022-08-05T17:18:14.073Z,100283.69
2022-08-05T17:20:42.529Z,100276.19
2022-08-05T17:24:03.122Z,100289.59
2022-08-05T17:25:59.661Z,100287.25
2022-08-05T17:28:29.943Z,100284.72
2022-08-05T17:30:57.597Z,100291.00
2022-08-05T17:33:26.215Z,100289.13
2022-08-05T17:36:07.275Z,100291.00
2022-08-05T17:38:39.923Z,100291.38
2022-08-05T17:41:22.738Z,100295.25
2022-08-05T17:43:55.455Z,100301.34
2022-08-05T17:46:23.869Z,100298.06
2022-08-05T17:48:52.524Z,100299.16
2022-08-05T17:51:21.587Z,100306.94
2022-08-05T17:53:50.769Z,100311.97
2022-08-05T17:56:22.797Z,100311.81
2022-08-05T17:58:51.234Z,100323.09
2022-08-05T18:01:20.014Z,100331.69
2022-08-05T18:03:59.683Z,100328.53
2022-08-05T18:06:32.494Z,100328.78
2022-08-05T18:09:03.636Z,100340.72
2022-08-05T18:11:33.371Z,100340.97
2022-08-05T18:14:03.422Z,100347.25
2022-08-05T18:16:31.715Z,100346.50
2022-08-05T18:18:59.761Z,100349.75
2022-08-05T18:21:28.227Z,100360.59
2022-08-05T18:24:15.231Z,100358.22
2022-08-05T18:26:43.778Z,100360.44
2022-08-05T18:29:11.756Z,100366.22
2022-08-05T18:31:43.165Z,100371.16
2022-08-05T18:34:12.227Z,100375.22
2022-08-05T18:36:41.245Z,100375.94
2022-08-05T18:39:42.010Z,100380.69
2022-08-05T18:42:05.053Z,100385.31
2022-08-05T18:44:49.153Z,100379.06
2022-08-05T18:47:26.843Z,100391.13
2022-08-05T18:50:12.394Z,100404.00
2022-08-05T18:52:51.348Z,100404.19
2022-08-05T18:55:19.519Z,100400.66
2022-08-05T18:57:53.388Z,100412.00
2022-08-05T19:00:29.235Z,100411.00
2022-08-05T19:03:04.041Z,100418.06
2022-08-05T19:06:13.455Z,100420.78
2022-08-05T19:08:19.961Z,100424.84
2022-08-05T19:10:49.521Z,100422.16
2022-08-05T19:13:17.142Z,100430.56
2022-08-05T19:15:59.270Z,100426.84
2022-08-05T19:18:28.848Z,100431.28
2022-08-05T19:20:56.858Z,100436.63
2022-08-05T19:24:08.058Z,100436.63
2022-08-05T19:26:12.788Z,100443.69
2022-08-05T19:28:42.297Z,100441.84
2022-08-05T19:31:13.196Z,100448.91
2022-08-05T19:33:48.676Z,100446.00
2022-08-05T19:36:23.880Z,100450.34
2022-08-05T19:38:52.369Z,100450.84
2022-08-05T19:41:22.084Z,100462.81
2022-08-05T19:44:13.010Z,100470.41
2022-08-05T19:46:43.646Z,100472.72
2022-08-05T19:49:12.440Z,100479.78
2022-08-05T19:52:05.760Z,100480.59
2022-08-05T19:54:34.150Z,100488.66
2022-08-05T19:57:07.638Z,100502.94
2022-08-05T19:59:55.578Z,100507.25
2022-08-05T20:02:26.125Z,100507.41
2022-08-05T20:04:55.557Z,100507.16
2022-08-05T20:07:39.004Z,100522.47
2022-08-05T20:10:14.746Z,100519.81
2022-08-05T20:12:47.728Z,100525.97
2022-08-05T20:15:47.761Z,100527.44
2022-08-05T20:18:10.320Z,100522.84
2022-08-05T20:20:55.201Z,100529.84
2022-08-05T20:23:23.862Z,100535.72
2022-08-05T20:26:08.484Z,100541.72
2022-08-05T20:28:44.314Z,100538.63
2022-08-05T20:31:12.758Z,100555.25
2022-08-05T20:33:42.504Z,100559.94
2022-08-05T20:36:11.264Z,100556.84
2022-08-05T20:38:40.878Z,100559.00
2022-08-05T20:41:27.201Z,100567.53
2022-08-05T20:44:18.397Z,100569.13
2022-08-05T20:46:47.590Z,100571.41
2022-08-05T20:49:24.062Z,100580.94
2022-08-05T20:51:53.807Z,100585.34
2022-08-05T20:54:21.827Z,100583.56
2022-08-05T20:56:49.789Z,100583.75
2022-08-05T20:59:26.195Z,100580.41
2022-08-05T21:01:57.133Z,100584.94
2022-08-05T21:04:27.097Z,100587.69
2022-08-05T21:06:54.968Z,100587.41
2022-08-05T21:09:23.475Z,100592.41
2022-08-05T21:12:09.615Z,100595.53
2022-08-05T21:14:38.993Z,100600.47
2022-08-05T21:17:06.780Z,100598.09
2022-08-05T21:19:47.554Z,100595.78
2022-08-05T21:22:17.624Z,100589.84
2022-08-05T21:24:49.043Z,100596.53
2022-08-05T21:27:20.686Z,100599.53
2022-08-05T21:29:55.369Z,100594.41
2022-08-05T21:32:23.393Z,100600.09
2022-08-05T21:34:56.016Z,100603.00
2022-08-05T21:37:41.443Z,100601.31
2022-08-05T21:40:13.701Z,100605.00
2022-08-05T21:42:45.086Z,100603.00
2022-08-05T21:45:24.831Z,100609.09
2022-08-05T21:47:56.288Z,100621.59
2022-08-05T21:50:25.505Z,100621.69
2022-08-05T21:52:53.522Z,100620.44
2022-08-05T21:55:42.849Z,100624.25
2022-08-05T21:58:10.422Z,100620.28
2022-08-05T22:00:40.152Z,100621.53
2022-08-05T22:03:09.756Z,100631.72
2022-08-05T22:05:48.114Z,100637.25
2022-08-05T22:08:22.559Z,100640.22
2022-08-05T22:10:53.226Z,100633.28
2022-08-05T22:14:34.612Z,100633.56
2022-08-05T22:16:39.123Z,100635.69
2022-08-05T22:18:58.527Z,100637.91
2022-08-05T22:21:26.632Z,100648.09
2022-08-05T22:24:13.445Z,100636.78
2022-08-05T22:27:17.382Z,100638.63
2022-08-05T22:29:45.949Z,100642.31
2022-08-05T22:32:17.495Z,100642.44
2022-08-05T22:34:45.847Z,100646.13
2022-08-05T22:37:13.638Z,100649.63
2022-08-05T22:39:41.403Z,100652.19
2022-08-05T22:42:12.695Z,100656.56
2022-08-05T22:44:48.466Z,100659.13
2022-08-05T22:47:29.385Z,100651.78
2022-08-05T22:50:17.893Z,100656.88
2022-08-05T22:52:46.298Z,100660.41
2022-08-05T22:55:19.346Z,100664.22
2022-08-05T22:57:49.081Z,100672.28
2022-08-05T23:00:17.965Z,100675.13
2022-08-05T23:02:48.908Z,100673.25
2022-08-05T23:05:17.101Z,100672.16
2022-08-05T23:07:48.849Z,100672.72
2022-08-05T23:10:19.566Z,100674.28
2022-08-05T23:12:48.146Z,100686.28
2022-08-05T23:15:19.392Z,100689.97
2022-08-05T23:18:01.726Z,100689.38
2022-08-05T23:20:30.229Z,100692.47
2022-08-05T23:22:58.764Z,100694.59
2022-08-05T23:25:51.689Z,100699.69
2022-08-05T23:28:15.999Z,100702.31
2022-08-05T23:30:53.798Z,100709.34
2022-08-05T23:33:26.203Z,100711.03
2022-08-05T23:36:10.446Z,100719.72
2022-08-05T23:38:38.863Z,100722.22
2022-08-05T23:41:06.477Z,100717.34
2022-08-05T23:44:05.474Z,100711.56
2022-08-05T23:46:22.615Z,100726.91
2022-08-05T23:48:59.795Z,100726.22
2022-08-05T23:51:52.461Z,100726.09
2022-08-05T23:54:25.716Z,100733.44
2022-08-05T23:56:54.456Z,100734.25
2022-08-05T23:59:22.701Z,100736.81
